sensor_id;sensor_type;location;lat;lon;timestamp;P1;durP1;ratioP1;P2;durP2;ratioP2
35312;SDS011;21425;50.454;30.466;2023-02-04T00:01:44;8.75;;;3.67;;
35312;SDS011;21425;50.454;30.466;2023-02-04T00:04:13;5.88;;;3.65;;
35312;SDS011;21425;50.454;30.466;2023-02-04T00:06:39;7.07;;;3.67;;
35312;SDS011;21425;50.454;30.466;2023-02-04T00:09:05;6.85;;;3.38;;
35312;SDS011;21425;50.454;30.466;2023-02-04T00:11:31;7.65;;;3.40;;
35312;SDS011;21425;50.454;30.466;2023-02-04T00:13:56;6.03;;;3.17;;
35312;SDS011;21425;50.454;30.466;2023-02-04T00:16:22;5.63;;;3.40;;
35312;SDS011;21425;50.454;30.466;2023-02-04T00:18:47;4.68;;;2.67;;
35312;SDS011;21425;50.454;30.466;2023-02-04T00:21:13;5.85;;;3.30;;
35312;SDS011;21425;50.454;30.466;2023-02-04T00:23:39;7.07;;;3.45;;
35312;SDS011;21425;50.454;30.466;2023-02-04T00:26:05;6.80;;;2.75;;
35312;SDS011;21425;50.454;30.466;2023-02-04T00:28:31;8.10;;;3.38;;
35312;SDS011;21425;50.454;30.466;2023-02-04T00:30:56;5.13;;;2.92;;
35312;SDS011;21425;50.454;30.466;2023-02-04T00:33:22;4.50;;;2.88;;
35312;SDS011;21425;50.454;30.466;2023-02-04T00:35:47;6.55;;;3.38;;
35312;SDS011;21425;50.454;30.466;2023-02-04T00:38:13;6.00;;;3.13;;
35312;SDS011;21425;50.454;30.466;2023-02-04T00:40:39;5.80;;;3.13;;
35312;SDS011;21425;50.454;30.466;2023-02-04T00:43:05;8.57;;;3.90;;
35312;SDS011;21425;50.454;30.466;2023-02-04T00:45:30;15.75;;;6.03;;
35312;SDS011;21425;50.454;30.466;2023-02-04T00:47:56;20.50;;;10.85;;
35312;SDS011;21425;50.454;30.466;2023-02-04T00:50:21;11.13;;;5.68;;
35312;SDS011;21425;50.454;30.466;2023-02-04T00:52:47;9.10;;;4.68;;
35312;SDS011;21425;50.454;30.466;2023-02-04T00:55:13;6.07;;;3.55;;
35312;SDS011;21425;50.454;30.466;2023-02-04T00:57:41;8.20;;;3.85;;
35312;SDS011;21425;50.454;30.466;2023-02-04T01:00:07;6.97;;;3.17;;
35312;SDS011;21425;50.454;30.466;2023-02-04T01:02:33;9.13;;;4.20;;
35312;SDS011;21425;50.454;30.466;2023-02-04T01:04:59;6.35;;;3.33;;
35312;SDS011;21425;50.454;30.466;2023-02-04T01:07:24;6.00;;;3.05;;
35312;SDS011;21425;50.454;30.466;2023-02-04T01:09:50;8.93;;;4.43;;
35312;SDS011;21425;50.454;30.466;2023-02-04T01:12:15;6.85;;;3.67;;
35312;SDS011;21425;50.454;30.466;2023-02-04T01:14:41;8.07;;;3.10;;
35312;SDS011;21425;50.454;30.466;2023-02-04T01:17:06;4.90;;;2.40;;
35312;SDS011;21425;50.454;30.466;2023-02-04T01:19:32;3.67;;;2.55;;
35312;SDS011;21425;50.454;30.466;2023-02-04T01:21:58;5.22;;;2.03;;
35312;SDS011;21425;50.454;30.466;2023-02-04T01:24:23;4.05;;;2.30;;
35312;SDS011;21425;50.454;30.466;2023-02-04T01:26:49;5.32;;;2.70;;
35312;SDS011;21425;50.454;30.466;2023-02-04T01:29:14;4.95;;;2.70;;
35312;SDS011;21425;50.454;30.466;2023-02-04T01:31:40;5.25;;;2.45;;
35312;SDS011;21425;50.454;30.466;2023-02-04T01:34:05;5.40;;;2.20;;
35312;SDS011;21425;50.454;30.466;2023-02-04T01:36:31;5.53;;;2.28;;
35312;SDS011;21425;50.454;30.466;2023-02-04T01:38:57;5.85;;;2.33;;
35312;SDS011;21425;50.454;30.466;2023-02-04T01:41:24;5.18;;;2.50;;
35312;SDS011;21425;50.454;30.466;2023-02-04T01:43:50;5.82;;;2.67;;
35312;SDS011;21425;50.454;30.466;2023-02-04T01:46:16;7.63;;;2.92;;
35312;SDS011;21425;50.454;30.466;2023-02-04T01:48:42;5.78;;;3.33;;
35312;SDS011;21425;50.454;30.466;2023-02-04T01:51:09;4.97;;;2.60;;
35312;SDS011;21425;50.454;30.466;2023-02-04T01:53:37;6.85;;;2.97;;
35312;SDS011;21425;50.454;30.466;2023-02-04T01:56:13;6.00;;;2.85;;
35312;SDS011;21425;50.454;30.466;2023-02-04T01:58:41;6.50;;;2.95;;
35312;SDS011;21425;50.454;30.466;2023-02-04T02:01:14;6.47;;;3.05;;
35312;SDS011;21425;50.454;30.466;2023-02-04T02:03:57;5.53;;;2.80;;
35312;SDS011;21425;50.454;30.466;2023-02-04T02:06:23;5.95;;;2.85;;
35312;SDS011;21425;50.454;30.466;2023-02-04T02:08:48;4.70;;;2.53;;
35312;SDS011;21425;50.454;30.466;2023-02-04T02:11:14;5.65;;;2.33;;
35312;SDS011;21425;50.454;30.466;2023-02-04T02:13:40;5.00;;;2.38;;
35312;SDS011;21425;50.454;30.466;2023-02-04T02:16:06;5.38;;;2.38;;
35312;SDS011;21425;50.454;30.466;2023-02-04T02:18:31;6.47;;;2.80;;
35312;SDS011;21425;50.454;30.466;2023-02-04T02:20:57;4.72;;;3.08;;
35312;SDS011;21425;50.454;30.466;2023-02-04T02:28:39;4.65;;;2.35;;
35312;SDS011;21425;50.454;30.466;2023-02-04T02:31:05;5.55;;;2.53;;
35312;SDS011;21425;50.454;30.466;2023-02-04T02:33:30;5.80;;;2.42;;
35312;SDS011;21425;50.454;30.466;2023-02-04T02:35:56;6.43;;;2.95;;
35312;SDS011;21425;50.454;30.466;2023-02-04T02:38:22;5.38;;;3.15;;
35312;SDS011;21425;50.454;30.466;2023-02-04T02:40:47;8.52;;;2.90;;
35312;SDS011;21425;50.454;30.466;2023-02-04T02:43:17;6.90;;;2.70;;
35312;SDS011;21425;50.454;30.466;2023-02-04T02:45:48;5.50;;;2.55;;
35312;SDS011;21425;50.454;30.466;2023-02-04T02:48:14;6.80;;;3.10;;
35312;SDS011;21425;50.454;30.466;2023-02-04T02:50:41;4.65;;;2.75;;
35312;SDS011;21425;50.454;30.466;2023-02-04T02:53:11;5.85;;;3.00;;
35312;SDS011;21425;50.454;30.466;2023-02-04T02:55:38;6.82;;;2.83;;
35312;SDS011;21425;50.454;30.466;2023-02-04T02:58:08;6.15;;;3.08;;
35312;SDS011;21425;50.454;30.466;2023-02-04T03:00:41;4.95;;;2.72;;
35312;SDS011;21425;50.454;30.466;2023-02-04T03:03:14;5.45;;;2.33;;
35312;SDS011;21425;50.454;30.466;2023-02-04T03:05:46;4.35;;;2.53;;
35312;SDS011;21425;50.454;30.466;2023-02-04T03:08:15;4.40;;;2.70;;
35312;SDS011;21425;50.454;30.466;2023-02-04T03:10:41;6.60;;;2.92;;
35312;SDS011;21425;50.454;30.466;2023-02-04T03:13:09;5.90;;;3.25;;
35312;SDS011;21425;50.454;30.466;2023-02-04T03:15:36;9.77;;;5.43;;
35312;SDS011;21425;50.454;30.466;2023-02-04T03:18:02;10.45;;;4.15;;
35312;SDS011;21425;50.454;30.466;2023-02-04T03:20:28;9.00;;;4.32;;
35312;SDS011;21425;50.454;30.466;2023-02-04T03:22:55;7.15;;;3.88;;
35312;SDS011;21425;50.454;30.466;2023-02-04T03:25:22;7.43;;;3.60;;
35312;SDS011;21425;50.454;30.466;2023-02-04T03:27:54;7.05;;;3.45;;
35312;SDS011;21425;50.454;30.466;2023-02-04T03:30:21;5.43;;;3.22;;
35312;SDS011;21425;50.454;30.466;2023-02-04T03:32:47;9.82;;;3.65;;
35312;SDS011;21425;50.454;30.466;2023-02-04T03:35:13;9.77;;;3.88;;
35312;SDS011;21425;50.454;30.466;2023-02-04T03:37:38;5.65;;;2.75;;
35312;SDS011;21425;50.454;30.466;2023-02-04T03:40:04;6.80;;;3.97;;
35312;SDS011;21425;50.454;30.466;2023-02-04T03:42:30;5.15;;;2.83;;
35312;SDS011;21425;50.454;30.466;2023-02-04T03:44:56;8.00;;;3.50;;
35312;SDS011;21425;50.454;30.466;2023-02-04T03:47:21;9.45;;;4.32;;
35312;SDS011;21425;50.454;30.466;2023-02-04T03:49:47;9.68;;;3.50;;
35312;SDS011;21425;50.454;30.466;2023-02-04T03:52:13;6.45;;;3.85;;
35312;SDS011;21425;50.454;30.466;2023-02-04T03:54:38;8.10;;;3.58;;
35312;SDS011;21425;50.454;30.466;2023-02-04T03:57:04;7.13;;;4.22;;
35312;SDS011;21425;50.454;30.466;2023-02-04T03:59:30;7.35;;;3.97;;
35312;SDS011;21425;50.454;30.466;2023-02-04T04:01:55;7.28;;;3.78;;
35312;SDS011;21425;50.454;30.466;2023-02-04T04:04:21;10.20;;;4.40;;
35312;SDS011;21425;50.454;30.466;2023-02-04T04:06:47;10.98;;;4.32;;
35312;SDS011;21425;50.454;30.466;2023-02-04T04:09:12;8.48;;;3.88;;
35312;SDS011;21425;50.454;30.466;2023-02-04T04:11:38;9.88;;;3.70;;
35312;SDS011;21425;50.454;30.466;2023-02-04T04:14:03;5.85;;;3.55;;
35312;SDS011;21425;50.454;30.466;2023-02-04T04:16:29;4.97;;;3.30;;
35312;SDS011;21425;50.454;30.466;2023-02-04T04:18:55;7.63;;;3.20;;
35312;SDS011;21425;50.454;30.466;2023-02-04T04:21:20;5.80;;;3.00;;
35312;SDS011;21425;50.454;30.466;2023-02-04T04:23:46;4.95;;;2.85;;
35312;SDS011;21425;50.454;30.466;2023-02-04T04:26:12;5.20;;;3.28;;
35312;SDS011;21425;50.454;30.466;2023-02-04T04:28:37;5.40;;;3.42;;
35312;SDS011;21425;50.454;30.466;2023-02-04T04:31:03;6.53;;;3.33;;
35312;SDS011;21425;50.454;30.466;2023-02-04T04:33:29;4.20;;;3.00;;
35312;SDS011;21425;50.454;30.466;2023-02-04T04:35:54;5.03;;;3.33;;
35312;SDS011;21425;50.454;30.466;2023-02-04T04:38:20;11.77;;;3.33;;
35312;SDS011;21425;50.454;30.466;2023-02-04T04:40:45;7.20;;;3.38;;
35312;SDS011;21425;50.454;30.466;2023-02-04T04:43:11;5.40;;;3.17;;
35312;SDS011;21425;50.454;30.466;2023-02-04T04:45:37;7.28;;;3.40;;
35312;SDS011;21425;50.454;30.466;2023-02-04T04:48:02;5.60;;;3.25;;
35312;SDS011;21425;50.454;30.466;2023-02-04T04:50:28;7.15;;;3.97;;
35312;SDS011;21425;50.454;30.466;2023-02-04T04:52:54;7.78;;;3.75;;
35312;SDS011;21425;50.454;30.466;2023-02-04T04:55:19;8.18;;;3.70;;
35312;SDS011;21425;50.454;30.466;2023-02-04T04:57:45;7.10;;;3.33;;
35312;SDS011;21425;50.454;30.466;2023-02-04T05:00:13;6.65;;;3.30;;
35312;SDS011;21425;50.454;30.466;2023-02-04T05:02:40;4.40;;;2.67;;
35312;SDS011;21425;50.454;30.466;2023-02-04T05:05:07;8.57;;;4.20;;
35312;SDS011;21425;50.454;30.466;2023-02-04T05:07:33;8.75;;;3.92;;
35312;SDS011;21425;50.454;30.466;2023-02-04T05:09:58;8.40;;;4.00;;
35312;SDS011;21425;50.454;30.466;2023-02-04T05:12:24;6.60;;;3.60;;
35312;SDS011;21425;50.454;30.466;2023-02-04T05:14:49;6.15;;;3.30;;
35312;SDS011;21425;50.454;30.466;2023-02-04T05:17:15;6.07;;;3.80;;
35312;SDS011;21425;50.454;30.466;2023-02-04T05:19:40;7.30;;;3.35;;
35312;SDS011;21425;50.454;30.466;2023-02-04T05:22:06;8.82;;;4.20;;
35312;SDS011;21425;50.454;30.466;2023-02-04T05:24:31;10.45;;;4.25;;
35312;SDS011;21425;50.454;30.466;2023-02-04T05:26:57;7.60;;;4.05;;
35312;SDS011;21425;50.454;30.466;2023-02-04T05:29:23;8.77;;;3.53;;
35312;SDS011;21425;50.454;30.466;2023-02-04T05:31:48;6.57;;;3.35;;
35312;SDS011;21425;50.454;30.466;2023-02-04T05:34:14;8.15;;;3.85;;
35312;SDS011;21425;50.454;30.466;2023-02-04T05:36:39;9.00;;;4.00;;
35312;SDS011;21425;50.454;30.466;2023-02-04T05:39:05;8.38;;;3.83;;
35312;SDS011;21425;50.454;30.466;2023-02-04T05:41:31;9.02;;;3.97;;
35312;SDS011;21425;50.454;30.466;2023-02-04T05:43:56;7.47;;;3.45;;
35312;SDS011;21425;50.454;30.466;2023-02-04T05:46:22;9.93;;;3.75;;
35312;SDS011;21425;50.454;30.466;2023-02-04T05:48:47;9.40;;;4.20;;
35312;SDS011;21425;50.454;30.466;2023-02-04T05:51:14;6.40;;;3.58;;
35312;SDS011;21425;50.454;30.466;2023-02-04T05:53:39;9.57;;;4.05;;
35312;SDS011;21425;50.454;30.466;2023-02-04T05:56:05;12.48;;;4.05;;
35312;SDS011;21425;50.454;30.466;2023-02-04T05:58:31;10.40;;;4.43;;
35312;SDS011;21425;50.454;30.466;2023-02-04T06:00:59;7.68;;;3.75;;
35312;SDS011;21425;50.454;30.466;2023-02-04T06:03:26;8.32;;;4.47;;
35312;SDS011;21425;50.454;30.466;2023-02-04T06:05:52;10.43;;;5.18;;
35312;SDS011;21425;50.454;30.466;2023-02-04T06:08:18;10.95;;;4.28;;
35312;SDS011;21425;50.454;30.466;2023-02-04T06:10:43;11.20;;;4.90;;
35312;SDS011;21425;50.454;30.466;2023-02-04T06:13:09;11.25;;;4.55;;
35312;SDS011;21425;50.454;30.466;2023-02-04T06:15:34;10.23;;;4.72;;
35312;SDS011;21425;50.454;30.466;2023-02-04T06:18:00;10.32;;;5.55;;
35312;SDS011;21425;50.454;30.466;2023-02-04T06:20:26;11.27;;;4.60;;
35312;SDS011;21425;50.454;30.466;2023-02-04T06:22:51;11.27;;;5.18;;
35312;SDS011;21425;50.454;30.466;2023-02-04T06:25:18;8.95;;;3.92;;
35312;SDS011;21425;50.454;30.466;2023-02-04T06:27:44;13.55;;;5.45;;
35312;SDS011;21425;50.454;30.466;2023-02-04T06:30:10;13.05;;;5.40;;
35312;SDS011;21425;50.454;30.466;2023-02-04T06:32:37;11.10;;;5.45;;
35312;SDS011;21425;50.454;30.466;2023-02-04T06:35:02;10.73;;;6.05;;
35312;SDS011;21425;50.454;30.466;2023-02-04T06:37:28;13.45;;;5.00;;
35312;SDS011;21425;50.454;30.466;2023-02-04T06:39:54;10.73;;;4.68;;
35312;SDS011;21425;50.454;30.466;2023-02-04T06:42:21;14.18;;;5.88;;
35312;SDS011;21425;50.454;30.466;2023-02-04T06:44:49;9.00;;;4.75;;
35312;SDS011;21425;50.454;30.466;2023-02-04T06:47:14;10.75;;;4.68;;
35312;SDS011;21425;50.454;30.466;2023-02-04T06:49:40;9.95;;;4.93;;
35312;SDS011;21425;50.454;30.466;2023-02-04T06:52:06;9.43;;;4.75;;
35312;SDS011;21425;50.454;30.466;2023-02-04T06:54:31;11.02;;;4.70;;
35312;SDS011;21425;50.454;30.466;2023-02-04T06:56:57;8.05;;;4.78;;
35312;SDS011;21425;50.454;30.466;2023-02-04T06:59:30;11.20;;;5.15;;
35312;SDS011;21425;50.454;30.466;2023-02-04T07:02:03;10.88;;;5.00;;
35312;SDS011;21425;50.454;30.466;2023-02-04T07:04:30;10.40;;;4.57;;
35312;SDS011;21425;50.454;30.466;2023-02-04T07:06:55;10.05;;;5.57;;
35312;SDS011;21425;50.454;30.466;2023-02-04T07:09:21;8.50;;;4.10;;
35312;SDS011;21425;50.454;30.466;2023-02-04T07:11:47;13.48;;;4.57;;
35312;SDS011;21425;50.454;30.466;2023-02-04T07:14:13;9.52;;;4.03;;
35312;SDS011;21425;50.454;30.466;2023-02-04T07:16:38;7.68;;;3.67;;
35312;SDS011;21425;50.454;30.466;2023-02-04T07:19:04;8.55;;;4.22;;
35312;SDS011;21425;50.454;30.466;2023-02-04T07:21:29;11.75;;;5.43;;
35312;SDS011;21425;50.454;30.466;2023-02-04T07:23:55;13.05;;;6.22;;
35312;SDS011;21425;50.454;30.466;2023-02-04T07:26:21;14.95;;;5.55;;
35312;SDS011;21425;50.454;30.466;2023-02-04T07:28:47;14.50;;;5.28;;
35312;SDS011;21425;50.454;30.466;2023-02-04T07:31:13;19.77;;;8.27;;
35312;SDS011;21425;50.454;30.466;2023-02-04T07:33:39;10.32;;;3.97;;
35312;SDS011;21425;50.454;30.466;2023-02-04T07:36:04;12.90;;;5.30;;
35312;SDS011;21425;50.454;30.466;2023-02-04T07:38:30;10.35;;;4.13;;
35312;SDS011;21425;50.454;30.466;2023-02-04T07:40:55;9.23;;;3.65;;
35312;SDS011;21425;50.454;30.466;2023-02-04T07:43:21;9.35;;;4.35;;
35312;SDS011;21425;50.454;30.466;2023-02-04T07:45:47;8.90;;;4.85;;
35312;SDS011;21425;50.454;30.466;2023-02-04T07:48:12;12.70;;;4.35;;
35312;SDS011;21425;50.454;30.466;2023-02-04T07:50:38;8.95;;;4.50;;
35312;SDS011;21425;50.454;30.466;2023-02-04T07:53:04;9.57;;;4.38;;
35312;SDS011;21425;50.454;30.466;2023-02-04T07:55:30;9.23;;;3.67;;
35312;SDS011;21425;50.454;30.466;2023-02-04T07:57:56;9.63;;;4.00;;
35312;SDS011;21425;50.454;30.466;2023-02-04T08:00:21;9.52;;;4.20;;
35312;SDS011;21425;50.454;30.466;2023-02-04T08:02:48;9.65;;;3.50;;
35312;SDS011;21425;50.454;30.466;2023-02-04T08:05:13;5.60;;;3.00;;
35312;SDS011;21425;50.454;30.466;2023-02-04T08:07:39;6.88;;;3.17;;
35312;SDS011;21425;50.454;30.466;2023-02-04T08:10:05;5.15;;;2.88;;
35312;SDS011;21425;50.454;30.466;2023-02-04T08:12:32;5.97;;;3.05;;
35312;SDS011;21425;50.454;30.466;2023-02-04T08:14:57;7.47;;;2.90;;
35312;SDS011;21425;50.454;30.466;2023-02-04T08:17:25;7.00;;;2.95;;
35312;SDS011;21425;50.454;30.466;2023-02-04T08:19:51;4.85;;;2.45;;
35312;SDS011;21425;50.454;30.466;2023-02-04T08:22:16;7.40;;;3.13;;
35312;SDS011;21425;50.454;30.466;2023-02-04T08:24:42;4.97;;;2.90;;
35312;SDS011;21425;50.454;30.466;2023-02-04T08:27:07;7.55;;;3.22;;
35312;SDS011;21425;50.454;30.466;2023-02-04T08:29:33;5.13;;;3.10;;
35312;SDS011;21425;50.454;30.466;2023-02-04T08:31:58;9.13;;;3.45;;
35312;SDS011;21425;50.454;30.466;2023-02-04T08:34:24;8.65;;;3.55;;
35312;SDS011;21425;50.454;30.466;2023-02-04T08:36:49;8.98;;;3.60;;
35312;SDS011;21425;50.454;30.466;2023-02-04T08:39:15;5.85;;;3.28;;
35312;SDS011;21425;50.454;30.466;2023-02-04T08:41:40;10.65;;;3.92;;
35312;SDS011;21425;50.454;30.466;2023-02-04T08:44:06;8.30;;;3.38;;
35312;SDS011;21425;50.454;30.466;2023-02-04T08:46:31;7.88;;;3.70;;
35312;SDS011;21425;50.454;30.466;2023-02-04T08:48:57;7.10;;;3.65;;
35312;SDS011;21425;50.454;30.466;2023-02-04T08:51:22;8.38;;;3.60;;
35312;SDS011;21425;50.454;30.466;2023-02-04T08:53:48;8.32;;;3.47;;
35312;SDS011;21425;50.454;30.466;2023-02-04T08:56:14;6.82;;;3.58;;
35312;SDS011;21425;50.454;30.466;2023-02-04T08:58:44;8.05;;;3.65;;
35312;SDS011;21425;50.454;30.466;2023-02-04T09:01:10;9.27;;;3.97;;
35312;SDS011;21425;50.454;30.466;2023-02-04T09:03:36;7.05;;;3.65;;
35312;SDS011;21425;50.454;30.466;2023-02-04T09:06:02;4.82;;;3.08;;
35312;SDS011;21425;50.454;30.466;2023-02-04T09:08:28;7.03;;;3.22;;
35312;SDS011;21425;50.454;30.466;2023-02-04T09:10:54;6.15;;;2.90;;
35312;SDS011;21425;50.454;30.466;2023-02-04T09:13:19;4.57;;;2.85;;
35312;SDS011;21425;50.454;30.466;2023-02-04T09:15:46;4.15;;;2.47;;
35312;SDS011;21425;50.454;30.466;2023-02-04T09:18:11;5.22;;;2.67;;
35312;SDS011;21425;50.454;30.466;2023-02-04T09:20:46;6.70;;;3.38;;
35312;SDS011;21425;50.454;30.466;2023-02-04T09:23:15;4.80;;;2.88;;
35312;SDS011;21425;50.454;30.466;2023-02-04T09:25:41;4.88;;;3.10;;
35312;SDS011;21425;50.454;30.466;2023-02-04T09:28:08;5.82;;;3.53;;
35312;SDS011;21425;50.454;30.466;2023-02-04T09:30:35;6.38;;;3.40;;
35312;SDS011;21425;50.454;30.466;2023-02-04T09:33:02;7.18;;;3.88;;
35312;SDS011;21425;50.454;30.466;2023-02-04T09:35:27;4.85;;;2.65;;
35312;SDS011;21425;50.454;30.466;2023-02-04T09:37:53;4.07;;;2.88;;
35312;SDS011;21425;50.454;30.466;2023-02-04T09:40:19;5.18;;;3.05;;
35312;SDS011;21425;50.454;30.466;2023-02-04T09:42:46;14.55;;;3.97;;
35312;SDS011;21425;50.454;30.466;2023-02-04T09:45:24;4.50;;;2.85;;
35312;SDS011;21425;50.454;30.466;2023-02-04T09:47:57;5.22;;;3.17;;
35312;SDS011;21425;50.454;30.466;2023-02-04T09:50:26;6.78;;;3.13;;
35312;SDS011;21425;50.454;30.466;2023-02-04T09:52:53;6.85;;;3.05;;
35312;SDS011;21425;50.454;30.466;2023-02-04T09:55:24;6.60;;;3.20;;
35312;SDS011;21425;50.454;30.466;2023-02-04T09:57:53;6.05;;;3.00;;
35312;SDS011;21425;50.454;30.466;2023-02-04T10:00:20;5.10;;;3.13;;
35312;SDS011;21425;50.454;30.466;2023-02-04T10:02:48;9.15;;;3.00;;
35312;SDS011;21425;50.454;30.466;2023-02-04T10:05:17;6.93;;;2.80;;
35312;SDS011;21425;50.454;30.466;2023-02-04T10:07:53;6.63;;;3.25;;
35312;SDS011;21425;50.454;30.466;2023-02-04T10:10:20;6.57;;;3.35;;
35312;SDS011;21425;50.454;30.466;2023-02-04T10:12:49;5.32;;;3.08;;
35312;SDS011;21425;50.454;30.466;2023-02-04T10:15:17;5.97;;;3.25;;
35312;SDS011;21425;50.454;30.466;2023-02-04T10:17:45;7.50;;;3.50;;
35312;SDS011;21425;50.454;30.466;2023-02-04T10:20:30;7.75;;;3.53;;
35312;SDS011;21425;50.454;30.466;2023-02-04T10:22:56;6.85;;;2.80;;
35312;SDS011;21425;50.454;30.466;2023-02-04T10:25:22;5.43;;;2.53;;
35312;SDS011;21425;50.454;30.466;2023-02-04T10:27:58;4.38;;;2.50;;
35312;SDS011;21425;50.454;30.466;2023-02-04T10:30:25;8.85;;;3.28;;
35312;SDS011;21425;50.454;30.466;2023-02-04T10:32:53;5.70;;;3.25;;
35312;SDS011;21425;50.454;30.466;2023-02-04T10:35:20;5.70;;;3.40;;
35312;SDS011;21425;50.454;30.466;2023-02-04T10:37:46;4.97;;;2.38;;
35312;SDS011;21425;50.454;30.466;2023-02-04T10:40:32;5.97;;;3.13;;
35312;SDS011;21425;50.454;30.466;2023-02-04T10:43:06;6.28;;;3.30;;
35312;SDS011;21425;50.454;30.466;2023-02-04T10:45:36;5.72;;;2.63;;
35312;SDS011;21425;50.454;30.466;2023-02-04T10:48:02;5.25;;;3.45;;
35312;SDS011;21425;50.454;30.466;2023-02-04T10:50:29;7.03;;;3.45;;
35312;SDS011;21425;50.454;30.466;2023-02-04T10:52:55;7.95;;;3.15;;
35312;SDS011;21425;50.454;30.466;2023-02-04T10:55:42;6.95;;;3.97;;
35312;SDS011;21425;50.454;30.466;2023-02-04T10:58:10;4.93;;;2.60;;
35312;SDS011;21425;50.454;30.466;2023-02-04T11:00:37;6.03;;;3.20;;
35312;SDS011;21425;50.454;30.466;2023-02-04T11:05:35;6.53;;;3.33;;
35312;SDS011;21425;50.454;30.466;2023-02-04T11:08:01;5.55;;;2.97;;
35312;SDS011;21425;50.454;30.466;2023-02-04T11:10:43;7.90;;;4.15;;
35312;SDS011;21425;50.454;30.466;2023-02-04T11:13:18;6.13;;;3.03;;
35312;SDS011;21425;50.454;30.466;2023-02-04T11:15:54;9.13;;;3.67;;
35312;SDS011;21425;50.454;30.466;2023-02-04T11:18:58;10.02;;;3.80;;
35312;SDS011;21425;50.454;30.466;2023-02-04T11:21:40;7.38;;;4.00;;
35312;SDS011;21425;50.454;30.466;2023-02-04T11:29:23;4.90;;;2.83;;
35312;SDS011;21425;50.454;30.466;2023-02-04T11:32:03;6.30;;;3.22;;
35312;SDS011;21425;50.454;30.466;2023-02-04T11:34:29;7.47;;;3.30;;
35312;SDS011;21425;50.454;30.466;2023-02-04T11:45:20;6.22;;;2.72;;
35312;SDS011;21425;50.454;30.466;2023-02-04T11:47:58;5.25;;;2.40;;
35312;SDS011;21425;50.454;30.466;2023-02-04T11:50:27;3.72;;;1.90;;
35312;SDS011;21425;50.454;30.466;2023-02-04T11:52:58;7.43;;;2.80;;
35312;SDS011;21425;50.454;30.466;2023-02-04T11:55:33;5.85;;;3.13;;
35312;SDS011;21425;50.454;30.466;2023-02-04T11:58:00;9.45;;;3.58;;
35312;SDS011;21425;50.454;30.466;2023-02-04T12:00:28;6.28;;;3.40;;
35312;SDS011;21425;50.454;30.466;2023-02-04T12:02:59;4.53;;;2.47;;
35312;SDS011;21425;50.454;30.466;2023-02-04T12:05:37;4.35;;;2.42;;
35312;SDS011;21425;50.454;30.466;2023-02-04T12:16:47;5.30;;;2.90;;
35312;SDS011;21425;50.454;30.466;2023-02-04T12:19:17;5.60;;;2.55;;
35312;SDS011;21425;50.454;30.466;2023-02-04T12:21:42;5.35;;;2.83;;
35312;SDS011;21425;50.454;30.466;2023-02-04T12:24:08;4.75;;;2.65;;
35312;SDS011;21425;50.454;30.466;2023-02-04T12:26:34;5.53;;;3.20;;
35312;SDS011;21425;50.454;30.466;2023-02-04T12:28:59;4.90;;;3.15;;
35312;SDS011;21425;50.454;30.466;2023-02-04T12:31:27;4.43;;;2.75;;
35312;SDS011;21425;50.454;30.466;2023-02-04T12:33:53;7.70;;;3.25;;
35312;SDS011;21425;50.454;30.466;2023-02-04T12:36:19;5.13;;;3.03;;
35312;SDS011;21425;50.454;30.466;2023-02-04T12:38:45;9.80;;;4.72;;
35312;SDS011;21425;50.454;30.466;2023-02-04T12:41:11;8.23;;;5.32;;
35312;SDS011;21425;50.454;30.466;2023-02-04T12:43:37;5.97;;;3.33;;
35312;SDS011;21425;50.454;30.466;2023-02-04T12:46:03;8.32;;;4.10;;
35312;SDS011;21425;50.454;30.466;2023-02-04T12:48:29;6.40;;;3.13;;
35312;SDS011;21425;50.454;30.466;2023-02-04T12:50:54;6.35;;;3.85;;
35312;SDS011;21425;50.454;30.466;2023-02-04T12:53:20;4.82;;;3.05;;
35312;SDS011;21425;50.454;30.466;2023-02-04T12:55:46;5.03;;;3.13;;
35312;SDS011;21425;50.454;30.466;2023-02-04T12:58:12;6.30;;;3.90;;
35312;SDS011;21425;50.454;30.466;2023-02-04T13:00:38;7.50;;;4.22;;
35312;SDS011;21425;50.454;30.466;2023-02-04T13:03:03;10.52;;;3.15;;
35312;SDS011;21425;50.454;30.466;2023-02-04T13:05:29;10.98;;;4.00;;
35312;SDS011;21425;50.454;30.466;2023-02-04T13:07:55;8.45;;;4.03;;
35312;SDS011;21425;50.454;30.466;2023-02-04T13:10:21;7.90;;;4.25;;
35312;SDS011;21425;50.454;30.466;2023-02-04T13:12:48;7.82;;;4.30;;
35312;SDS011;21425;50.454;30.466;2023-02-04T13:15:14;4.63;;;2.97;;
35312;SDS011;21425;50.454;30.466;2023-02-04T13:17:39;4.07;;;2.65;;
35312;SDS011;21425;50.454;30.466;2023-02-04T13:20:05;3.50;;;2.17;;
35312;SDS011;21425;50.454;30.466;2023-02-04T13:22:31;4.03;;;2.10;;
35312;SDS011;21425;50.454;30.466;2023-02-04T13:24:58;3.58;;;2.00;;
35312;SDS011;21425;50.454;30.466;2023-02-04T13:27:24;3.30;;;1.90;;
35312;SDS011;21425;50.454;30.466;2023-02-04T13:29:49;4.50;;;2.17;;
35312;SDS011;21425;50.454;30.466;2023-02-04T13:32:15;4.55;;;2.03;;
35312;SDS011;21425;50.454;30.466;2023-02-04T13:34:40;5.45;;;2.33;;
35312;SDS011;21425;50.454;30.466;2023-02-04T13:37:06;4.18;;;2.20;;
35312;SDS011;21425;50.454;30.466;2023-02-04T13:39:31;5.10;;;2.30;;
35312;SDS011;21425;50.454;30.466;2023-02-04T13:41:57;4.22;;;2.15;;
35312;SDS011;21425;50.454;30.466;2023-02-04T13:44:22;4.13;;;2.42;;
35312;SDS011;21425;50.454;30.466;2023-02-04T13:46:48;4.40;;;2.22;;
35312;SDS011;21425;50.454;30.466;2023-02-04T13:49:14;7.53;;;2.88;;
35312;SDS011;21425;50.454;30.466;2023-02-04T13:51:39;5.38;;;2.03;;
35312;SDS011;21425;50.454;30.466;2023-02-04T13:54:05;6.78;;;2.90;;
35312;SDS011;21425;50.454;30.466;2023-02-04T13:56:30;8.25;;;3.13;;
35312;SDS011;21425;50.454;30.466;2023-02-04T13:58:57;5.55;;;2.85;;
35312;SDS011;21425;50.454;30.466;2023-02-04T14:01:23;7.07;;;2.95;;
35312;SDS011;21425;50.454;30.466;2023-02-04T14:03:48;6.25;;;2.80;;
35312;SDS011;21425;50.454;30.466;2023-02-04T14:06:14;4.20;;;2.40;;
35312;SDS011;21425;50.454;30.466;2023-02-04T14:08:44;6.43;;;3.38;;
35312;SDS011;21425;50.454;30.466;2023-02-04T14:11:10;5.53;;;2.85;;
35312;SDS011;21425;50.454;30.466;2023-02-04T14:13:36;5.00;;;2.42;;
35312;SDS011;21425;50.454;30.466;2023-02-04T14:16:01;4.35;;;2.55;;
35312;SDS011;21425;50.454;30.466;2023-02-04T14:18:27;7.53;;;2.70;;
35312;SDS011;21425;50.454;30.466;2023-02-04T14:20:52;4.22;;;1.92;;
35312;SDS011;21425;50.454;30.466;2023-02-04T14:23:18;5.22;;;1.95;;
35312;SDS011;21425;50.454;30.466;2023-02-04T14:25:43;4.15;;;2.13;;
35312;SDS011;21425;50.454;30.466;2023-02-04T14:28:09;5.38;;;2.60;;
35312;SDS011;21425;50.454;30.466;2023-02-04T14:30:34;4.70;;;2.25;;
35312;SDS011;21425;50.454;30.466;2023-02-04T14:33:00;3.90;;;2.58;;
35312;SDS011;21425;50.454;30.466;2023-02-04T14:35:26;5.15;;;1.75;;
35312;SDS011;21425;50.454;30.466;2023-02-04T14:37:51;4.35;;;2.67;;
35312;SDS011;21425;50.454;30.466;2023-02-04T14:40:17;5.63;;;2.53;;
35312;SDS011;21425;50.454;30.466;2023-02-04T14:42:44;4.22;;;2.17;;
35312;SDS011;21425;50.454;30.466;2023-02-04T14:45:11;4.90;;;2.20;;
35312;SDS011;21425;50.454;30.466;2023-02-04T14:47:38;5.22;;;2.50;;
35312;SDS011;21425;50.454;30.466;2023-02-04T14:50:05;6.25;;;2.88;;
35312;SDS011;21425;50.454;30.466;2023-02-04T14:52:36;4.55;;;2.67;;
35312;SDS011;21425;50.454;30.466;2023-02-04T14:55:02;3.55;;;2.28;;
35312;SDS011;21425;50.454;30.466;2023-02-04T14:57:27;6.10;;;3.45;;
35312;SDS011;21425;50.454;30.466;2023-02-04T14:59:53;7.07;;;2.97;;
35312;SDS011;21425;50.454;30.466;2023-02-04T15:02:18;5.10;;;2.22;;